createdAt,value
2018-09-14T00:00:55.699Z,62.20
2018-09-14T00:03:23.964Z,62.20
2018-09-14T00:05:52.239Z,62.20
2018-09-14T00:08:20.517Z,62.10
2018-09-14T00:10:48.784Z,62.20
2018-09-14T00:13:17.385Z,61.90
2018-09-14T00:15:45.647Z,62.20
2018-09-14T00:18:13.936Z,62.50
2018-09-14T00:20:42.223Z,61.90
2018-09-14T00:23:10.480Z,61.70
2018-09-14T00:25:38.750Z,61.80
2018-09-14T00:28:07.034Z,62.10
2018-09-14T00:30:35.290Z,62.00
2018-09-14T00:33:03.549Z,62.70
2018-09-14T00:35:31.830Z,62.80
2018-09-14T00:38:00.115Z,62.10
2018-09-14T00:40:28.375Z,62.70
2018-09-14T00:42:56.637Z,62.80
2018-09-14T00:45:24.877Z,62.60
2018-09-14T00:47:53.514Z,61.90
2018-09-14T00:50:21.767Z,62.90
2018-09-14T00:52:50.034Z,62.40
2018-09-14T00:55:19.077Z,62.10
2018-09-14T00:57:47.403Z,62.00
2018-09-14T01:00:15.619Z,62.10
2018-09-14T01:02:43.953Z,62.00
2018-09-14T01:05:13.039Z,62.00
2018-09-14T01:07:41.281Z,62.00
2018-09-14T01:10:09.549Z,62.30
2018-09-14T01:12:37.820Z,62.40
2018-09-14T01:15:06.070Z,62.30
2018-09-14T01:17:34.356Z,62.60
2018-09-14T01:20:02.613Z,62.20
2018-09-14T01:22:31.622Z,61.90
2018-09-14T01:24:59.894Z,61.90
2018-09-14T01:27:28.138Z,62.40
2018-09-14T01:29:57.174Z,61.90
2018-09-14T01:32:25.443Z,61.80
2018-09-14T01:34:53.721Z,62.70
2018-09-14T01:37:21.982Z,62.50
2018-09-14T01:39:50.574Z,62.50
2018-09-14T01:42:18.837Z,62.20
2018-09-14T01:44:47.088Z,62.40
2018-09-14T01:47:16.401Z,62.60
2018-09-14T01:49:44.623Z,62.50
2018-09-14T01:52:12.873Z,62.40
2018-09-14T01:54:41.154Z,62.90
2018-09-14T01:57:09.415Z,63.10
2018-09-14T01:59:37.662Z,63.20
2018-09-14T02:02:06.723Z,63.20
2018-09-14T02:04:34.996Z,63.10
2018-09-14T02:07:03.248Z,62.90
2018-09-14T02:09:31.518Z,63.10
2018-09-14T02:11:59.769Z,63.00
2018-09-14T02:14:28.039Z,63.10
2018-09-14T02:16:57.079Z,63.10
2018-09-14T02:19:25.325Z,63.00
2018-09-14T02:21:53.594Z,62.80
2018-09-14T02:24:21.856Z,62.90
2018-09-14T02:26:50.906Z,62.70
2018-09-14T02:29:19.154Z,62.70
2018-09-14T02:31:47.434Z,63.00
2018-09-14T02:34:15.708Z,63.50
2018-09-14T02:36:43.986Z,63.80
2018-09-14T02:39:12.243Z,63.60
2018-09-14T02:41:40.498Z,63.80
2018-09-14T02:44:09.784Z,63.30
2018-09-14T02:46:38.809Z,63.60
2018-09-14T02:49:07.064Z,63.60
2018-09-14T02:51:36.104Z,64.40
2018-09-14T02:54:04.379Z,64.40
2018-09-14T02:56:32.642Z,64.30
2018-09-14T02:59:00.902Z,64.20
2018-09-14T03:01:29.172Z,64.80
2018-09-14T03:03:57.431Z,64.40
2018-09-14T03:06:26.458Z,63.80
2018-09-14T03:08:54.729Z,63.80
2018-09-14T03:11:23.012Z,64.10
2018-09-14T03:13:51.294Z,63.80
2018-09-14T03:16:19.578Z,63.90
2018-09-14T03:18:47.843Z,64.20
2018-09-14T03:21:16.103Z,64.60
2018-09-14T03:23:44.393Z,65.40
2018-09-14T03:26:12.638Z,64.60
2018-09-14T03:28:40.905Z,64.40
2018-09-14T03:31:09.172Z,65.30
2018-09-14T03:33:38.199Z,65.30
2018-09-14T03:36:06.460Z,64.60
2018-09-14T03:38:34.735Z,64.70
2018-09-14T03:41:03.006Z,65.30
2018-09-14T03:43:31.251Z,64.70
2018-09-14T03:46:00.540Z,65.10
2018-09-14T03:48:28.792Z,64.80
2018-09-14T03:50:57.051Z,64.70
2018-09-14T03:53:25.324Z,65.00
2018-09-14T03:55:53.600Z,65.00
2018-09-14T03:58:21.866Z,64.60
2018-09-14T04:00:50.208Z,65.00
2018-09-14T04:03:18.625Z,64.90
2018-09-14T04:05:46.887Z,65.50
2018-09-14T04:08:15.145Z,65.10
2018-09-14T04:10:44.174Z,65.30
2018-09-14T04:13:12.435Z,65.30
2018-09-14T04:15:40.946Z,65.30
2018-09-14T04:18:09.202Z,65.30
2018-09-14T04:20:37.486Z,65.30
2018-09-14T04:23:05.800Z,65.40
2018-09-14T04:25:34.031Z,65.40
2018-09-14T04:28:02.310Z,65.30
2018-09-14T04:30:30.602Z,65.80
2018-09-14T04:32:58.850Z,65.40
2018-09-14T04:35:27.102Z,65.40
2018-09-14T04:37:55.379Z,65.30
2018-09-14T04:40:24.408Z,65.40
2018-09-14T04:42:52.777Z,65.40
2018-09-14T04:45:21.024Z,64.80
2018-09-14T04:47:49.288Z,65.40
2018-09-14T04:50:18.323Z,65.50
2018-09-14T04:52:46.623Z,65.40
2018-09-14T04:55:14.875Z,65.10
2018-09-14T04:57:43.156Z,65.50
2018-09-14T05:00:11.463Z,65.20
2018-09-14T05:02:39.686Z,65.40
2018-09-14T05:05:07.964Z,65.40
2018-09-14T05:07:36.234Z,64.30
2018-09-14T05:10:04.494Z,64.30
2018-09-14T05:12:32.755Z,65.00
2018-09-14T05:15:01.779Z,64.50
2018-09-14T05:17:30.055Z,64.30
2018-09-14T05:19:58.309Z,65.40
2018-09-14T05:22:26.787Z,64.70
2018-09-14T05:24:55.077Z,64.80
2018-09-14T05:27:23.291Z,64.50
2018-09-14T05:29:51.578Z,64.60
2018-09-14T05:32:19.839Z,64.40
2018-09-14T05:34:48.128Z,64.60
2018-09-14T05:37:17.400Z,65.40
2018-09-14T05:39:45.651Z,65.40
2018-09-14T05:42:14.145Z,64.90
2018-09-14T05:44:42.410Z,64.80
2018-09-14T05:47:10.650Z,65.30
2018-09-14T05:49:39.683Z,65.20
2018-09-14T05:52:08.643Z,65.10
2018-09-14T05:54:38.032Z,64.50
2018-09-14T05:57:06.227Z,64.50
2018-09-14T05:59:34.470Z,64.60
2018-09-14T06:02:02.739Z,64.60
2018-09-14T06:04:30.989Z,64.80
2018-09-14T06:06:59.356Z,65.20
2018-09-14T06:09:27.837Z,65.10
2018-09-14T06:11:56.105Z,65.30
2018-09-14T06:14:24.362Z,65.10
2018-09-14T06:16:52.687Z,65.20
2018-09-14T06:19:20.912Z,65.30
2018-09-14T06:21:49.172Z,65.30
2018-09-14T06:24:18.191Z,64.90
2018-09-14T06:26:46.466Z,64.80
2018-09-14T06:29:14.740Z,65.30
2018-09-14T06:31:43.033Z,65.10
2018-09-14T06:34:11.283Z,66.00
2018-09-14T06:36:39.571Z,65.10
2018-09-14T06:39:07.842Z,65.30
2018-09-14T06:41:36.124Z,65.30
2018-09-14T06:44:04.395Z,65.50
2018-09-14T06:46:32.658Z,65.80
2018-09-14T06:49:00.924Z,65.20
2018-09-14T06:51:29.964Z,65.80
2018-09-14T06:53:58.246Z,65.20
2018-09-14T06:56:26.645Z,65.10
2018-09-14T06:58:54.910Z,65.70
2018-09-14T07:01:23.350Z,65.20
2018-09-14T07:03:52.038Z,65.20
2018-09-14T07:06:20.391Z,65.30
2018-09-14T07:08:49.377Z,65.90
2018-09-14T07:11:18.412Z,64.70
2018-09-14T07:13:46.682Z,64.70
2018-09-14T07:16:14.962Z,65.40
2018-09-14T07:18:43.220Z,64.60
2018-09-14T07:21:11.481Z,64.30
2018-09-14T07:23:39.964Z,64.00
2018-09-14T07:26:08.256Z,64.20
2018-09-14T07:28:37.447Z,64.20
2018-09-14T07:31:05.716Z,64.20
2018-09-14T07:33:34.013Z,63.20
2018-09-14T07:36:02.274Z,63.90
2018-09-14T07:38:30.527Z,63.70
2018-09-14T07:40:58.808Z,62.80
2018-09-14T07:43:27.094Z,62.80
2018-09-14T07:45:55.374Z,63.00
2018-09-14T07:48:23.720Z,63.90
2018-09-14T07:50:51.957Z,63.00
2018-09-14T07:53:20.264Z,62.90
2018-09-14T07:55:48.519Z,62.90
2018-09-14T07:58:16.787Z,62.80
2018-09-14T08:00:45.048Z,62.50
2018-09-14T08:03:13.311Z,62.50
2018-09-14T08:05:41.778Z,62.60
2018-09-14T08:08:10.035Z,62.90
2018-09-14T08:10:38.292Z,62.70
2018-09-14T08:13:07.421Z,62.20
2018-09-14T08:15:35.910Z,62.10
2018-09-14T08:18:04.157Z,63.00
2018-09-14T08:20:32.423Z,61.50
2018-09-14T08:23:01.510Z,61.50
2018-09-14T08:25:29.734Z,61.50
2018-09-14T08:27:57.997Z,61.90
2018-09-14T08:30:26.270Z,61.80
2018-09-14T08:32:54.534Z,62.20
2018-09-14T08:35:22.835Z,62.40
2018-09-14T08:37:51.100Z,62.70
2018-09-14T08:40:19.368Z,61.40
2018-09-14T08:42:47.657Z,62.30
2018-09-14T08:45:15.924Z,63.00
2018-09-14T08:47:44.214Z,63.10
2018-09-14T08:50:12.446Z,63.40
2018-09-14T08:52:41.475Z,63.20
2018-09-14T08:55:09.759Z,63.20
2018-09-14T08:57:38.016Z,62.30
2018-09-14T09:00:06.292Z,62.20
2018-09-14T09:02:34.551Z,62.70
2018-09-14T09:05:02.822Z,62.80
2018-09-14T09:07:31.072Z,63.10
2018-09-14T09:09:59.614Z,62.70
2018-09-14T09:12:27.871Z,63.60
2018-09-14T09:14:56.122Z,63.80
2018-09-14T09:17:24.390Z,62.40
2018-09-14T09:19:53.490Z,62.90
2018-09-14T09:22:21.705Z,62.90
2018-09-14T09:24:49.975Z,63.30
2018-09-14T09:27:18.219Z,62.90
2018-09-14T09:29:46.483Z,63.00
2018-09-14T09:32:15.527Z,62.80
2018-09-14T09:34:44.559Z,62.30
2018-09-14T09:37:12.825Z,62.30
2018-09-14T09:39:41.071Z,61.20
2018-09-14T09:42:09.351Z,61.00
2018-09-14T09:44:37.731Z,61.70
2018-09-14T09:47:06.003Z,61.70
2018-09-14T09:49:34.280Z,62.20
2018-09-14T09:52:02.553Z,62.80
2018-09-14T09:54:30.811Z,63.10
2018-09-14T09:56:59.070Z,63.90
2018-09-14T09:59:27.349Z,63.00
2018-09-14T10:01:55.615Z,63.90
2018-09-14T10:04:23.909Z,63.30
2018-09-14T10:06:52.169Z,63.70
2018-09-14T10:09:20.431Z,64.10
2018-09-14T10:11:49.469Z,64.30
2018-09-14T10:14:17.797Z,64.30
2018-09-14T10:16:46.024Z,64.10
2018-09-14T10:19:15.073Z,63.90
2018-09-14T10:21:43.406Z,63.90
2018-09-14T10:24:12.568Z,64.60
2018-09-14T10:26:40.817Z,64.60
2018-09-14T10:29:09.831Z,65.20
2018-09-14T10:31:38.248Z,65.20
2018-09-14T10:34:06.502Z,63.40
2018-09-14T10:36:34.754Z,64.20
2018-09-14T10:39:03.129Z,63.90
2018-09-14T10:41:31.389Z,64.50
2018-09-14T10:43:59.665Z,64.50
2018-09-14T10:46:27.922Z,63.20
2018-09-14T10:48:57.014Z,65.00
2018-09-14T10:51:25.248Z,64.90
2018-09-14T10:53:53.643Z,64.60
2018-09-14T10:56:21.917Z,63.90
2018-09-14T10:58:50.590Z,63.80
2018-09-14T11:01:18.875Z,64.80
2018-09-14T11:03:47.158Z,64.20
2018-09-14T11:06:15.420Z,63.20
2018-09-14T11:08:43.852Z,63.40
2018-09-14T11:11:12.147Z,64.20
2018-09-14T11:13:40.389Z,66.20
2018-09-14T11:16:09.479Z,63.80
2018-09-14T11:18:38.527Z,63.30
2018-09-14T11:21:06.774Z,63.30
2018-09-14T11:23:35.046Z,64.10
2018-09-14T11:26:03.296Z,63.60
2018-09-14T11:28:32.339Z,63.90
2018-09-14T11:31:00.599Z,63.80
2018-09-14T11:33:28.887Z,64.10
2018-09-14T11:35:57.158Z,63.80
2018-09-14T11:38:25.444Z,64.00
2018-09-14T11:40:53.663Z,66.10
2018-09-14T11:43:22.703Z,66.10
2018-09-14T11:45:50.976Z,66.10
2018-09-14T11:48:19.261Z,64.50
2018-09-14T11:50:47.525Z,64.20
2018-09-14T11:53:15.817Z,65.50
2018-09-14T11:55:44.067Z,63.10
2018-09-14T11:58:12.339Z,63.90
2018-09-14T12:00:41.350Z,63.20
2018-09-14T12:03:09.626Z,63.80
2018-09-14T12:05:37.890Z,63.00
2018-09-14T12:08:06.190Z,62.00
2018-09-14T12:10:34.454Z,63.10
2018-09-14T12:13:02.712Z,62.90
2018-09-14T12:15:30.976Z,63.30
2018-09-14T12:17:59.250Z,63.70
2018-09-14T12:20:27.502Z,62.60
2018-09-14T12:22:56.555Z,63.70
2018-09-14T12:25:24.816Z,63.70
2018-09-14T12:27:53.105Z,62.50
2018-09-14T12:30:21.430Z,64.50
2018-09-14T12:32:50.468Z,64.10
2018-09-14T12:35:18.736Z,64.10
2018-09-14T12:37:47.025Z,62.80
2018-09-14T12:40:15.310Z,62.50
2018-09-14T12:42:43.590Z,62.80
2018-09-14T12:45:11.864Z,63.20
2018-09-14T12:47:40.836Z,61.00
2018-09-14T12:50:09.988Z,61.50
2018-09-14T12:52:39.031Z,61.90
2018-09-14T12:55:07.313Z,61.80
2018-09-14T12:57:35.571Z,60.00
2018-09-14T13:00:03.853Z,58.60
2018-09-14T13:02:32.108Z,60.50
2018-09-14T13:05:00.395Z,58.70
2018-09-14T13:07:28.660Z,58.00
2018-09-14T13:09:56.952Z,57.90
2018-09-14T13:12:25.233Z,57.40
2018-09-14T13:14:53.546Z,54.80
2018-09-14T13:17:22.581Z,55.90
2018-09-14T13:19:50.866Z,56.00
2018-09-14T13:22:19.114Z,58.00
2018-09-14T13:24:47.378Z,55.30
2018-09-14T13:27:16.395Z,55.60
2018-09-14T13:29:44.662Z,55.60
2018-09-14T13:32:12.937Z,55.00
2018-09-14T13:34:41.960Z,54.00
2018-09-14T13:37:10.235Z,54.00
2018-09-14T13:39:38.476Z,54.70
2018-09-14T13:42:06.790Z,52.20
2018-09-14T13:44:35.066Z,54.60
2018-09-14T13:47:03.331Z,56.20
2018-09-14T13:49:31.743Z,56.30
2018-09-14T13:51:59.988Z,55.10
2018-09-14T13:54:28.234Z,56.40
2018-09-14T13:56:56.498Z,52.80
2018-09-14T13:59:25.535Z,53.70
2018-09-14T14:01:53.787Z,53.70
2018-09-14T14:04:22.080Z,54.50
2018-09-14T14:06:50.304Z,54.40
2018-09-14T14:09:19.350Z,52.00
2018-09-14T14:11:47.619Z,52.00
2018-09-14T14:14:15.925Z,51.10
2018-09-14T14:16:44.244Z,50.70
2018-09-14T14:19:32.576Z,50.00
2018-09-14T14:22:00.822Z,51.50
2018-09-14T14:24:29.103Z,51.10
2018-09-14T14:26:57.349Z,51.50
2018-09-14T14:29:25.632Z,51.80
2018-09-14T14:31:53.899Z,49.20
2018-09-14T14:34:22.341Z,48.20
2018-09-14T14:36:50.611Z,47.90
2018-09-14T14:39:19.616Z,46.20
2018-09-14T14:41:48.953Z,46.10
2018-09-14T14:44:17.188Z,47.40
2018-09-14T14:46:45.451Z,46.20
2018-09-14T14:49:14.457Z,44.40
2018-09-14T14:51:42.725Z,44.40
2018-09-14T14:54:11.006Z,44.20
2018-09-14T14:56:40.038Z,43.60
2018-09-14T14:59:08.306Z,43.60
2018-09-14T15:01:36.549Z,43.60
2018-09-14T15:04:04.915Z,42.70
2018-09-14T15:06:33.943Z,46.00
2018-09-14T15:09:02.185Z,45.80
2018-09-14T15:11:32.325Z,44.40
2018-09-14T15:14:00.581Z,44.40
2018-09-14T15:16:29.582Z,43.10
2018-09-14T15:18:57.871Z,43.00
2018-09-14T15:21:26.154Z,43.30
2018-09-14T15:23:54.404Z,43.60
2018-09-14T15:26:22.650Z,44.00
2018-09-14T15:28:51.691Z,45.10
2018-09-14T15:31:19.929Z,44.90
2018-09-14T15:33:48.975Z,46.30
2018-09-14T15:36:17.422Z,46.10
2018-09-14T15:38:45.676Z,46.80
2018-09-14T15:41:14.716Z,46.50
2018-09-14T15:43:43.006Z,46.20
2018-09-14T15:46:11.218Z,46.90
2018-09-14T15:48:40.244Z,47.00
2018-09-14T15:51:08.482Z,46.90
2018-09-14T15:53:37.502Z,48.40
2018-09-14T15:56:05.810Z,49.20
2018-09-14T15:58:34.103Z,47.00
2018-09-14T16:01:02.403Z,47.80
2018-09-14T16:03:31.419Z,45.90
2018-09-14T16:05:59.713Z,45.90
2018-09-14T16:08:27.946Z,46.50
2018-09-14T16:10:59.533Z,46.00
2018-09-14T16:13:27.840Z,45.90
2018-09-14T16:15:56.058Z,46.40
2018-09-14T16:18:24.313Z,47.00
2018-09-14T16:20:52.567Z,47.80
2018-09-14T16:23:20.824Z,48.00
2018-09-14T16:25:49.079Z,47.80
2018-09-14T16:28:17.567Z,48.20
2018-09-14T16:30:45.943Z,48.50
2018-09-14T16:33:14.198Z,48.90
2018-09-14T16:35:42.460Z,49.70
2018-09-14T16:38:11.487Z,48.00
2018-09-14T16:40:39.737Z,48.00
2018-09-14T16:43:08.746Z,49.50
2018-09-14T16:45:37.149Z,49.40
2018-09-14T16:48:05.382Z,49.80
2018-09-14T16:50:33.665Z,49.10
2018-09-14T16:53:01.959Z,50.20
2018-09-14T16:55:30.190Z,50.00
2018-09-14T16:57:59.216Z,50.70
2018-09-14T17:00:27.471Z,50.70
2018-09-14T17:02:55.863Z,50.80
2018-09-14T17:05:24.116Z,50.60
2018-09-14T17:07:53.205Z,50.00
2018-09-14T17:10:22.750Z,49.40
2018-09-14T17:12:51.002Z,49.40
2018-09-14T17:15:19.397Z,49.40
2018-09-14T17:17:47.679Z,50.20
2018-09-14T17:20:16.111Z,49.70
2018-09-14T17:22:44.493Z,51.50
2018-09-14T17:25:12.727Z,52.50
2018-09-14T17:27:41.013Z,54.50
2018-09-14T17:30:09.250Z,54.40
2018-09-14T17:32:37.533Z,55.20
2018-09-14T17:35:05.882Z,55.70
2018-09-14T17:37:34.924Z,56.00
2018-09-14T17:40:03.158Z,55.90
2018-09-14T17:42:31.429Z,55.70
2018-09-14T17:45:00.447Z,57.00
2018-09-14T17:47:28.717Z,56.80
2018-09-14T17:49:56.977Z,56.80
2018-09-14T17:52:25.241Z,56.80
2018-09-14T17:54:54.329Z,57.70
2018-09-14T17:57:22.598Z,57.70
2018-09-14T17:59:51.629Z,58.50
2018-09-14T18:02:20.211Z,57.80
2018-09-14T18:04:48.458Z,58.30
2018-09-14T18:07:17.468Z,58.30
2018-09-14T18:09:45.760Z,58.20
2018-09-14T18:12:14.035Z,57.60
2018-09-14T18:14:42.784Z,57.70
2018-09-14T18:17:11.825Z,58.20
2018-09-14T18:19:40.094Z,58.20
2018-09-14T18:22:08.414Z,58.80
2018-09-14T18:24:36.693Z,59.70
2018-09-14T18:27:04.934Z,59.10
2018-09-14T18:29:33.154Z,58.60
2018-09-14T18:32:02.196Z,58.50
2018-09-14T18:34:30.455Z,58.40
2018-09-14T18:36:58.710Z,58.70
2018-09-14T18:39:27.003Z,59.80
2018-09-14T18:41:55.286Z,59.80
2018-09-14T18:44:23.538Z,59.80
2018-09-14T18:46:51.851Z,59.80
2018-09-14T18:49:20.851Z,59.90
2018-09-14T18:51:49.107Z,59.70
2018-09-14T18:54:17.615Z,60.20
2018-09-14T18:56:46.554Z,60.20
2018-09-14T18:59:14.798Z,60.10
2018-09-14T19:01:43.243Z,60.00
2018-09-14T19:04:11.498Z,60.10
2018-09-14T19:06:39.789Z,60.20
2018-09-14T19:09:08.067Z,59.60
2018-09-14T19:11:36.346Z,59.50
2018-09-14T19:14:04.589Z,59.60
2018-09-14T19:16:32.863Z,60.10
2018-09-14T19:19:01.150Z,60.00
2018-09-14T19:21:29.394Z,60.20
2018-09-14T19:23:58.442Z,60.50
2018-09-14T19:26:26.688Z,60.50
2018-09-14T19:28:54.988Z,61.00
2018-09-14T19:31:23.224Z,60.50
2018-09-14T19:33:52.801Z,60.30
2018-09-14T19:36:21.067Z,60.30
2018-09-14T19:38:49.336Z,60.30
2018-09-14T19:41:17.595Z,60.50
2018-09-14T19:43:45.853Z,60.30
2018-09-14T19:46:14.092Z,60.20
2018-09-14T19:48:43.098Z,60.70
2018-09-14T19:51:11.452Z,60.70
2018-09-14T19:53:39.685Z,61.10
2018-09-14T19:56:07.932Z,61.10
2018-09-14T19:58:36.252Z,61.10
2018-09-14T20:01:04.532Z,61.10
2018-09-14T20:03:32.935Z,61.10
2018-09-14T20:06:01.977Z,61.20
2018-09-14T20:08:30.199Z,61.20
2018-09-14T20:10:59.235Z,61.50
2018-09-14T20:13:27.518Z,61.40
2018-09-14T20:15:55.736Z,61.40
2018-09-14T20:18:25.147Z,61.90
2018-09-14T20:20:53.342Z,61.40
2018-09-14T20:23:21.580Z,61.50
2018-09-14T20:25:49.866Z,61.60
2018-09-14T20:28:19.153Z,61.90
2018-09-14T20:33:22.374Z,61.60
2018-09-14T20:35:51.396Z,61.70
2018-09-14T20:38:19.702Z,61.80
2018-09-14T20:40:47.941Z,61.80
2018-09-14T20:43:16.203Z,61.70
2018-09-14T20:45:45.232Z,61.60
2018-09-14T20:48:13.470Z,61.60
2018-09-14T20:50:42.498Z,61.40
2018-09-14T20:53:10.819Z,61.30
2018-09-14T20:55:39.166Z,61.10
2018-09-14T20:58:07.482Z,61.30
2018-09-14T21:00:35.663Z,61.20
2018-09-14T21:03:04.269Z,61.40
2018-09-14T21:05:32.515Z,61.40
2018-09-14T21:08:01.527Z,61.40
2018-09-14T21:10:29.790Z,61.40
2018-09-14T21:12:58.150Z,61.80
2018-09-14T21:15:27.388Z,61.80
2018-09-14T21:17:55.646Z,61.70
2018-09-14T21:20:23.886Z,61.50
2018-09-14T21:22:52.154Z,61.60
2018-09-14T21:25:20.409Z,61.40
2018-09-14T21:27:48.664Z,61.40
2018-09-14T21:30:16.921Z,61.60
2018-09-14T21:32:45.354Z,61.70
2018-09-14T21:35:13.590Z,61.50
2018-09-14T21:37:41.845Z,61.50
2018-09-14T21:40:10.113Z,61.80
2018-09-14T21:42:39.119Z,62.00
2018-09-14T21:45:07.379Z,61.90
2018-09-14T21:47:36.423Z,62.30
2018-09-14T21:50:04.682Z,62.30
2018-09-14T21:52:32.922Z,62.40
2018-09-14T21:55:01.184Z,62.40
2018-09-14T21:57:29.440Z,62.30
2018-09-14T21:59:57.688Z,62.40
2018-09-14T22:02:25.953Z,62.30
2018-09-14T22:04:54.188Z,62.30
2018-09-14T22:07:23.222Z,62.10
2018-09-14T22:09:51.464Z,62.10
2018-09-14T22:12:20.730Z,62.20
2018-09-14T22:14:48.974Z,62.20
2018-09-14T22:17:17.239Z,62.30
2018-09-14T22:19:45.490Z,61.90
2018-09-14T22:22:14.524Z,62.00
2018-09-14T22:24:42.758Z,62.10
2018-09-14T22:27:11.877Z,61.80
2018-09-14T22:29:40.463Z,61.70
2018-09-14T22:32:08.789Z,62.00
2018-09-14T22:34:36.992Z,62.60
2018-09-14T22:37:05.266Z,62.90
2018-09-14T22:39:33.519Z,63.00
2018-09-14T22:42:02.530Z,63.00
2018-09-14T22:44:31.145Z,63.00
2018-09-14T22:46:59.383Z,63.00
2018-09-14T22:49:28.403Z,63.30
2018-09-14T22:51:56.670Z,63.30
2018-09-14T22:54:24.947Z,63.20
2018-09-14T22:56:53.202Z,63.20
2018-09-14T22:59:22.247Z,63.50
2018-09-14T23:01:50.497Z,63.50
2018-09-14T23:04:18.771Z,62.90
2018-09-14T23:06:47.023Z,63.10
2018-09-14T23:09:15.323Z,63.10
2018-09-14T23:11:43.562Z,63.10
2018-09-14T23:14:12.577Z,63.30
2018-09-14T23:16:40.867Z,63.30
2018-09-14T23:19:09.134Z,63.10
2018-09-14T23:21:37.379Z,63.40
2018-09-14T23:24:06.390Z,63.40
2018-09-14T23:26:34.708Z,63.40
2018-09-14T23:29:02.950Z,63.40
2018-09-14T23:31:31.181Z,63.50
2018-09-14T23:33:59.440Z,64.10
2018-09-14T23:36:27.695Z,63.60
2018-09-14T23:38:56.001Z,63.50
2018-09-14T23:41:24.512Z,63.60
2018-09-14T23:43:53.305Z,63.80
2018-09-14T23:46:21.571Z,63.80
2018-09-14T23:48:50.599Z,64.10
2018-09-14T23:51:18.863Z,64.10
2018-09-14T23:53:47.441Z,63.90
2018-09-14T23:56:15.686Z,64.00
2018-09-14T23:58:44.694Z,63.80
